createdAt,value
2017-08-08T00:00:20.728Z,10.93
2017-08-08T00:02:49.319Z,10.65
2017-08-08T00:05:18.904Z,10.70
2017-08-08T00:07:46.518Z,12.15
2017-08-08T00:10:14.138Z,10.88
2017-08-08T00:12:41.770Z,13.95
2017-08-08T00:15:09.370Z,11.12
2017-08-08T00:17:37.024Z,12.15
2017-08-08T00:20:04.649Z,12.20
2017-08-08T00:22:32.272Z,12.68
2017-08-08T00:24:59.900Z,11.12
2017-08-08T00:27:27.515Z,15.50
2017-08-08T00:29:55.175Z,10.52
2017-08-08T00:32:22.785Z,11.93
2017-08-08T00:34:50.397Z,13.38
2017-08-08T00:37:18.027Z,15.00
2017-08-08T00:39:46.627Z,11.73
2017-08-08T00:42:16.177Z,12.15
2017-08-08T00:44:44.788Z,11.75
2017-08-08T00:47:12.424Z,14.93
2017-08-08T00:49:40.057Z,11.73
2017-08-08T00:52:07.667Z,15.63
2017-08-08T00:54:35.347Z,17.30
2017-08-08T00:57:02.969Z,12.07
2017-08-08T00:59:30.598Z,12.93
2017-08-08T01:01:58.200Z,12.15
2017-08-08T01:04:34.137Z,15.70
2017-08-08T01:07:01.655Z,13.70
2017-08-08T01:09:29.178Z,21.73
2017-08-08T01:11:56.684Z,20.45
2017-08-08T01:14:24.182Z,14.20
2017-08-08T01:16:51.680Z,15.88
2017-08-08T01:19:19.180Z,11.55
2017-08-08T01:21:46.680Z,13.93
2017-08-08T01:24:14.204Z,13.62
2017-08-08T01:26:41.736Z,12.65
2017-08-08T01:29:09.241Z,13.60
2017-08-08T01:31:36.744Z,16.33
2017-08-08T01:34:04.244Z,12.48
2017-08-08T01:36:31.774Z,12.20
2017-08-08T01:38:59.280Z,14.52
2017-08-08T01:41:26.785Z,13.27
2017-08-08T01:43:54.317Z,14.77
2017-08-08T01:46:21.825Z,13.68
2017-08-08T01:48:49.345Z,12.10
2017-08-08T01:51:16.898Z,16.12
2017-08-08T01:53:44.397Z,15.88
2017-08-08T01:56:11.898Z,15.85
2017-08-08T01:58:39.405Z,16.27
2017-08-08T02:01:06.930Z,14.73
2017-08-08T02:03:34.441Z,18.58
2017-08-08T02:06:01.953Z,16.95
2017-08-08T02:08:29.484Z,15.48
2017-08-08T02:10:56.996Z,17.62
2017-08-08T02:13:24.529Z,15.45
2017-08-08T02:15:52.048Z,15.70
2017-08-08T02:18:19.561Z,15.80
2017-08-08T02:20:47.073Z,18.25
2017-08-08T02:23:15.199Z,18.55
2017-08-08T02:25:42.733Z,18.05
2017-08-08T02:28:10.248Z,16.02
2017-08-08T02:30:37.756Z,19.17
2017-08-08T02:33:05.273Z,18.23
2017-08-08T02:35:32.778Z,20.27
2017-08-08T02:38:00.300Z,21.23
2017-08-08T02:40:27.808Z,19.20
2017-08-08T02:42:55.310Z,16.37
2017-08-08T02:45:22.820Z,17.27
2017-08-08T02:47:50.325Z,19.08
2017-08-08T02:50:17.852Z,19.95
2017-08-08T02:52:45.355Z,18.92
2017-08-08T02:55:12.852Z,17.42
2017-08-08T02:57:40.344Z,14.10
2017-08-08T03:00:07.861Z,17.67
2017-08-08T03:02:35.384Z,17.60
2017-08-08T03:05:02.914Z,21.87
2017-08-08T03:07:30.430Z,20.48
2017-08-08T03:09:57.933Z,18.73
2017-08-08T03:12:25.441Z,17.37
2017-08-08T03:14:52.982Z,21.70
2017-08-08T03:17:20.490Z,15.30
2017-08-08T03:19:47.999Z,16.52
2017-08-08T03:22:15.501Z,17.85
2017-08-08T03:24:43.017Z,17.30
2017-08-08T03:27:11.530Z,17.87
2017-08-08T03:29:38.840Z,19.15
2017-08-08T03:32:06.347Z,21.27
2017-08-08T03:34:33.847Z,21.10
2017-08-08T03:37:01.364Z,16.65
2017-08-08T03:39:28.898Z,17.98
2017-08-08T03:41:56.405Z,20.30
2017-08-08T03:44:23.904Z,16.20
2017-08-08T03:46:51.415Z,18.25
2017-08-08T03:49:18.933Z,17.35
2017-08-08T03:51:46.460Z,19.17
2017-08-08T03:54:13.988Z,20.12
2017-08-08T03:56:41.502Z,19.60
2017-08-08T03:59:09.016Z,20.23
2017-08-08T04:01:36.522Z,18.02
2017-08-08T04:04:04.054Z,17.10
2017-08-08T04:06:32.535Z,18.87
2017-08-08T04:09:00.051Z,19.80
2017-08-08T04:11:27.616Z,16.62
2017-08-08T04:13:55.229Z,16.95
2017-08-08T04:16:22.763Z,15.15
2017-08-08T04:18:50.264Z,15.13
2017-08-08T04:21:17.765Z,14.00
2017-08-08T04:23:45.273Z,17.42
2017-08-08T04:26:12.770Z,14.73
2017-08-08T04:28:40.294Z,22.98
2017-08-08T04:31:07.825Z,17.37
2017-08-08T04:33:35.326Z,18.02
2017-08-08T04:36:02.829Z,14.50
2017-08-08T04:38:30.328Z,16.62
2017-08-08T04:40:57.849Z,15.85
2017-08-08T04:43:25.354Z,14.27
2017-08-08T04:45:52.869Z,13.95
2017-08-08T04:48:20.372Z,13.23
2017-08-08T04:50:47.896Z,13.85
2017-08-08T04:53:15.412Z,13.77
2017-08-08T04:55:42.906Z,14.25
2017-08-08T04:58:10.404Z,16.77
2017-08-08T05:00:37.913Z,13.00
2017-08-08T05:03:05.417Z,12.45
2017-08-08T05:05:32.940Z,18.52
2017-08-08T05:08:00.437Z,11.68
2017-08-08T05:10:27.934Z,11.27
2017-08-08T05:12:55.430Z,10.40
2017-08-08T05:15:22.924Z,12.00
2017-08-08T05:17:50.436Z,10.27
2017-08-08T05:20:17.643Z,9.03
2017-08-08T05:22:44.840Z,10.60
2017-08-08T05:25:12.053Z,11.03
2017-08-08T05:27:39.261Z,11.73
2017-08-08T05:30:06.476Z,9.40
2017-08-08T05:32:33.685Z,9.63
2017-08-08T05:35:00.891Z,11.63
2017-08-08T05:37:28.377Z,9.27
2017-08-08T05:39:55.869Z,9.52
2017-08-08T05:42:24.360Z,8.75
2017-08-08T05:44:51.854Z,7.68
2017-08-08T05:47:19.350Z,10.05
2017-08-08T05:49:46.546Z,7.63
2017-08-08T05:52:13.751Z,7.23
2017-08-08T05:54:40.999Z,7.60
2017-08-08T05:57:08.200Z,6.90
2017-08-08T05:59:35.397Z,7.33
2017-08-08T06:02:02.591Z,6.23
2017-08-08T06:04:29.952Z,5.20
2017-08-08T06:06:57.172Z,5.50
2017-08-08T06:09:24.396Z,5.07
2017-08-08T06:11:51.598Z,4.37
2017-08-08T06:14:18.821Z,3.80
2017-08-08T06:16:46.029Z,6.33
2017-08-08T06:19:13.233Z,5.40
2017-08-08T06:21:40.473Z,4.23
2017-08-08T06:24:07.697Z,4.10
2017-08-08T06:26:34.934Z,5.03
2017-08-08T06:29:02.170Z,3.57
2017-08-08T06:31:29.396Z,3.50
2017-08-08T06:33:57.548Z,7.87
2017-08-08T06:36:24.777Z,3.03
2017-08-08T06:38:51.985Z,4.50
2017-08-08T06:41:20.147Z,10.10
2017-08-08T06:43:47.352Z,3.10
2017-08-08T06:46:14.554Z,3.50
2017-08-08T06:48:41.776Z,3.87
2017-08-08T06:51:08.977Z,2.87
2017-08-08T06:53:36.184Z,5.60
2017-08-08T06:56:03.388Z,2.93
2017-08-08T06:58:30.598Z,2.63
2017-08-08T07:00:57.831Z,2.83
2017-08-08T07:03:25.063Z,2.97
2017-08-08T07:05:52.282Z,3.20
2017-08-08T07:08:19.506Z,2.60
2017-08-08T07:10:46.705Z,2.20
2017-08-08T07:13:13.906Z,2.70
2017-08-08T07:15:41.127Z,2.70
2017-08-08T07:18:08.366Z,3.30
2017-08-08T07:20:35.568Z,3.50
2017-08-08T07:23:02.773Z,3.73
2017-08-08T07:25:30.912Z,3.00
2017-08-08T07:27:58.116Z,3.63
2017-08-08T07:30:27.285Z,7.43
2017-08-08T07:32:54.486Z,6.40
2017-08-08T07:35:21.688Z,5.27
2017-08-08T07:37:48.906Z,2.27
2017-08-08T07:40:16.142Z,3.73
2017-08-08T07:42:43.365Z,3.93
2017-08-08T07:45:11.517Z,2.60
2017-08-08T07:47:38.734Z,2.60
2017-08-08T07:50:05.936Z,2.20
2017-08-08T07:52:33.137Z,2.23
2017-08-08T07:55:00.356Z,2.67
2017-08-08T07:57:27.562Z,3.13
2017-08-08T07:59:54.756Z,2.70
2017-08-08T08:02:22.904Z,5.60
2017-08-08T08:04:50.096Z,2.37
2017-08-08T08:07:17.329Z,1.97
2017-08-08T08:09:44.530Z,3.00
2017-08-08T08:12:11.732Z,2.37
2017-08-08T08:14:38.937Z,3.30
2017-08-08T08:17:06.148Z,2.20
2017-08-08T08:19:33.368Z,3.47
2017-08-08T08:22:00.576Z,2.53
2017-08-08T08:24:27.780Z,3.93
2017-08-08T08:26:54.980Z,2.30
2017-08-08T08:29:22.180Z,2.00
2017-08-08T08:31:49.410Z,6.80
2017-08-08T08:34:17.552Z,2.33
2017-08-08T08:36:44.752Z,1.93
2017-08-08T08:39:11.952Z,2.00
2017-08-08T08:41:40.101Z,2.00
2017-08-08T08:44:07.321Z,7.37
2017-08-08T08:46:34.524Z,3.87
2017-08-08T08:49:01.721Z,2.17
2017-08-08T08:51:28.925Z,1.97
2017-08-08T08:53:56.129Z,2.30
2017-08-08T08:56:23.353Z,2.50
2017-08-08T08:58:50.549Z,1.80
2017-08-08T09:01:17.767Z,4.27
2017-08-08T09:03:44.973Z,2.10
2017-08-08T09:06:12.172Z,4.83
2017-08-08T09:08:39.392Z,4.43
2017-08-08T09:11:07.565Z,4.43
2017-08-08T09:13:34.760Z,2.40
2017-08-08T09:16:01.968Z,2.53
2017-08-08T09:18:29.169Z,1.60
2017-08-08T09:20:56.400Z,2.80
2017-08-08T09:23:23.597Z,2.40
2017-08-08T09:25:51.741Z,2.10
2017-08-08T09:28:18.944Z,4.03
2017-08-08T09:30:46.145Z,3.83
2017-08-08T09:33:13.365Z,6.83
2017-08-08T09:35:40.569Z,4.23
2017-08-08T09:38:07.772Z,2.10
2017-08-08T09:40:34.963Z,3.97
2017-08-08T09:43:02.173Z,3.00
2017-08-08T09:45:31.332Z,2.07
2017-08-08T09:47:58.541Z,2.20
2017-08-08T09:50:25.743Z,2.50
2017-08-08T09:52:52.946Z,2.33
2017-08-08T09:55:20.161Z,2.80
2017-08-08T09:57:47.379Z,2.50
2017-08-08T10:00:14.588Z,2.60
2017-08-08T10:02:42.543Z,2.60
2017-08-08T10:05:09.758Z,4.40
2017-08-08T10:07:36.974Z,2.27
2017-08-08T10:10:04.209Z,4.93
2017-08-08T10:12:31.412Z,2.40
2017-08-08T10:14:58.616Z,6.00
2017-08-08T10:17:25.816Z,2.33
2017-08-08T10:19:53.028Z,4.20
2017-08-08T10:22:20.257Z,2.30
2017-08-08T10:24:47.470Z,3.97
2017-08-08T10:27:14.676Z,2.40
2017-08-08T10:29:41.885Z,2.30
2017-08-08T10:32:09.084Z,2.30
2017-08-08T10:34:36.316Z,2.20
2017-08-08T10:37:03.528Z,2.67
2017-08-08T10:39:30.737Z,3.60
2017-08-08T10:41:57.944Z,3.67
2017-08-08T10:44:25.153Z,2.10
2017-08-08T10:46:54.304Z,4.17
2017-08-08T10:49:21.510Z,2.57
2017-08-08T10:51:48.785Z,9.10
2017-08-08T10:54:16.013Z,2.40
2017-08-08T10:56:43.221Z,2.40
2017-08-08T10:59:10.461Z,2.40
2017-08-08T11:01:37.665Z,2.33
2017-08-08T11:04:06.094Z,16.87
2017-08-08T11:06:33.674Z,1.97
2017-08-08T11:09:01.209Z,6.70
2017-08-08T11:11:28.701Z,4.93
2017-08-08T11:13:55.911Z,3.40
2017-08-08T11:16:23.119Z,2.30
2017-08-08T11:18:50.324Z,2.43
2017-08-08T11:21:17.533Z,2.50
2017-08-08T11:23:44.760Z,3.40
2017-08-08T11:26:11.988Z,2.93
2017-08-08T11:28:39.475Z,2.63
2017-08-08T11:31:06.677Z,2.50
2017-08-08T11:33:34.590Z,2.30
2017-08-08T11:36:02.521Z,2.73
2017-08-08T11:38:29.716Z,2.53
2017-08-08T11:40:56.942Z,2.77
2017-08-08T11:43:24.141Z,2.43
2017-08-08T11:45:51.350Z,2.40
2017-08-08T11:48:18.574Z,4.03
2017-08-08T11:50:46.710Z,2.43
2017-08-08T11:53:15.702Z,1.83
2017-08-08T11:55:42.933Z,5.87
2017-08-08T11:58:10.141Z,1.93
2017-08-08T12:00:37.353Z,11.90
2017-08-08T12:03:04.565Z,2.53
2017-08-08T12:05:32.128Z,4.23
2017-08-08T12:07:59.344Z,2.53
2017-08-08T12:10:26.549Z,3.20
2017-08-08T12:12:53.760Z,10.70
2017-08-08T12:15:20.990Z,3.97
2017-08-08T12:17:48.212Z,5.47
2017-08-08T12:20:16.389Z,6.20
2017-08-08T12:22:43.600Z,10.00
2017-08-08T12:25:10.802Z,9.13
2017-08-08T12:27:38.004Z,5.40
2017-08-08T12:30:05.034Z,5.57
2017-08-08T12:32:32.242Z,8.30
2017-08-08T12:34:59.450Z,5.00
2017-08-08T12:37:26.653Z,5.40
2017-08-08T12:39:53.861Z,6.00
2017-08-08T12:42:21.089Z,10.53
2017-08-08T12:44:48.288Z,7.93
2017-08-08T12:47:15.502Z,4.93
2017-08-08T12:49:44.656Z,4.30
2017-08-08T12:52:11.869Z,8.67
2017-08-08T12:54:39.075Z,6.37
2017-08-08T12:57:06.285Z,7.83
2017-08-08T12:59:33.504Z,8.90
2017-08-08T13:02:00.712Z,11.70
2017-08-08T13:04:27.921Z,11.50
2017-08-08T13:06:55.124Z,5.87
2017-08-08T13:09:22.330Z,4.00
2017-08-08T13:11:49.543Z,7.40
2017-08-08T13:14:16.745Z,7.70
2017-08-08T13:16:43.957Z,8.07
2017-08-08T13:19:11.160Z,7.53
2017-08-08T13:21:39.298Z,12.13
2017-08-08T13:24:06.516Z,8.33
2017-08-08T13:26:33.708Z,8.23
2017-08-08T13:29:00.916Z,13.00
2017-08-08T13:31:28.145Z,10.37
2017-08-08T13:33:56.284Z,7.40
2017-08-08T13:36:23.512Z,8.73
2017-08-08T13:38:50.712Z,7.57
2017-08-08T13:41:17.906Z,9.40
2017-08-08T13:43:45.113Z,5.50
2017-08-08T13:46:12.313Z,6.03
2017-08-08T13:48:41.493Z,10.10
2017-08-08T13:51:08.692Z,8.23
2017-08-08T13:53:35.893Z,6.40
2017-08-08T13:56:03.088Z,8.83
2017-08-08T13:58:30.306Z,6.47
2017-08-08T14:00:57.534Z,10.17
2017-08-08T14:03:24.737Z,5.80
2017-08-08T14:05:51.939Z,5.63
2017-08-08T14:08:20.089Z,7.87
2017-08-08T14:10:47.295Z,4.87
2017-08-08T14:13:14.524Z,5.37
2017-08-08T14:15:41.725Z,10.40
2017-08-08T14:18:08.929Z,4.27
2017-08-08T14:20:36.142Z,7.97
2017-08-08T14:23:03.346Z,7.90
2017-08-08T14:25:30.573Z,5.50
2017-08-08T14:27:57.774Z,10.70
2017-08-08T14:30:24.980Z,13.90
2017-08-08T14:32:52.188Z,7.80
2017-08-08T14:35:19.386Z,7.37
2017-08-08T14:37:49.614Z,16.00
2017-08-08T14:40:16.817Z,11.00
2017-08-08T14:42:44.017Z,9.60
2017-08-08T14:45:11.221Z,9.90
2017-08-08T14:47:38.429Z,9.63
2017-08-08T14:50:05.660Z,14.40
2017-08-08T14:52:32.871Z,16.00
2017-08-08T14:55:00.078Z,12.40
2017-08-08T14:57:27.292Z,21.23
2017-08-08T14:59:54.496Z,8.10
2017-08-08T15:02:21.727Z,9.10
2017-08-08T15:04:49.932Z,13.60
2017-08-08T15:07:17.124Z,9.33
2017-08-08T15:09:44.320Z,7.73
2017-08-08T15:12:11.530Z,5.90
2017-08-08T15:14:38.759Z,5.87
2017-08-08T15:17:05.972Z,5.80
2017-08-08T15:19:33.169Z,5.73
2017-08-08T15:22:01.318Z,5.30
2017-08-08T15:24:28.520Z,7.50
2017-08-08T15:26:55.744Z,5.23
2017-08-08T15:29:22.944Z,3.07
2017-08-08T15:31:50.155Z,2.60
2017-08-08T15:34:17.371Z,5.30
2017-08-08T15:36:44.597Z,2.63
2017-08-08T15:39:11.816Z,3.80
2017-08-08T15:41:39.027Z,1.87
2017-08-08T15:44:06.228Z,2.13
2017-08-08T15:46:33.448Z,4.10
2017-08-08T15:49:00.650Z,2.90
2017-08-08T15:51:27.885Z,1.63
2017-08-08T15:53:55.111Z,1.83
2017-08-08T15:56:22.332Z,1.70
2017-08-08T15:58:49.532Z,2.13
2017-08-08T16:01:16.727Z,6.60
2017-08-08T16:03:45.937Z,6.30
2017-08-08T16:06:13.145Z,2.53
2017-08-08T16:08:40.368Z,2.13
2017-08-08T16:11:07.574Z,6.03
2017-08-08T16:13:34.785Z,2.30
2017-08-08T16:16:01.981Z,3.30
2017-08-08T16:18:29.188Z,7.80
2017-08-08T16:20:56.409Z,2.50
2017-08-08T16:23:23.609Z,4.80
2017-08-08T16:25:50.813Z,6.30
2017-08-08T16:28:18.021Z,2.53
2017-08-08T16:30:45.223Z,3.53
2017-08-08T16:33:12.441Z,3.90
2017-08-08T16:35:39.657Z,3.83
2017-08-08T16:38:06.857Z,3.27
2017-08-08T16:40:34.078Z,3.90
2017-08-08T16:43:01.280Z,2.90
2017-08-08T16:45:30.444Z,3.73
2017-08-08T16:47:57.649Z,2.80
2017-08-08T16:50:24.851Z,3.23
2017-08-08T16:52:52.060Z,2.90
2017-08-08T16:55:19.276Z,5.37
2017-08-08T16:57:48.466Z,4.80
2017-08-08T17:00:15.672Z,6.17
2017-08-08T17:02:42.877Z,4.23
2017-08-08T17:05:10.112Z,11.17
2017-08-08T17:07:37.849Z,3.27
2017-08-08T17:10:05.080Z,3.30
2017-08-08T17:12:32.281Z,3.67
2017-08-08T17:14:59.481Z,3.80
2017-08-08T17:17:26.677Z,5.67
2017-08-08T17:19:53.881Z,3.23
2017-08-08T17:22:21.121Z,3.00
2017-08-08T17:24:48.339Z,4.03
2017-08-08T17:27:16.477Z,3.50
2017-08-08T17:29:43.680Z,2.80
2017-08-08T17:32:10.884Z,3.07
2017-08-08T17:34:38.117Z,2.63
2017-08-08T17:37:05.327Z,3.03
2017-08-08T17:39:32.548Z,2.43
2017-08-08T17:41:59.758Z,2.77
2017-08-08T17:44:26.969Z,2.80
2017-08-08T17:46:54.198Z,3.10
2017-08-08T17:49:22.337Z,3.30
2017-08-08T17:51:49.552Z,2.87
2017-08-08T17:54:16.760Z,6.00
2017-08-08T17:56:44.677Z,2.67
2017-08-08T17:59:11.892Z,6.07
2017-08-08T18:01:39.097Z,3.00
2017-08-08T18:04:06.296Z,5.83
2017-08-08T18:06:33.498Z,3.33
2017-08-08T18:09:00.701Z,3.53
2017-08-08T18:11:27.924Z,4.27
2017-08-08T18:13:55.121Z,4.97
2017-08-08T18:16:22.325Z,3.50
2017-08-08T18:18:49.524Z,8.60
2017-08-08T18:21:16.732Z,4.60
2017-08-08T18:23:43.968Z,4.00
2017-08-08T18:26:11.192Z,5.90
2017-08-08T18:28:38.400Z,8.43
2017-08-08T18:31:05.614Z,3.33
2017-08-08T18:33:32.820Z,3.97
2017-08-08T18:36:00.056Z,3.67
2017-08-08T18:38:27.280Z,3.27
2017-08-08T18:40:54.485Z,12.67
2017-08-08T18:43:22.628Z,8.47
2017-08-08T18:45:52.400Z,5.47
2017-08-08T18:48:19.620Z,3.27
2017-08-08T18:50:46.820Z,5.53
2017-08-08T18:53:14.020Z,3.60
2017-08-08T18:55:41.237Z,4.00
2017-08-08T18:58:08.436Z,4.77
2017-08-08T19:00:35.665Z,4.13
2017-08-08T19:03:02.878Z,4.73
2017-08-08T19:05:30.074Z,3.87
2017-08-08T19:07:57.301Z,3.50
2017-08-08T19:10:24.668Z,4.00
2017-08-08T19:12:52.816Z,3.40
2017-08-08T19:15:20.050Z,3.60
2017-08-08T19:17:47.263Z,4.50
2017-08-08T19:20:14.507Z,3.43
2017-08-08T19:22:41.746Z,9.80
2017-08-08T19:25:08.944Z,6.47
2017-08-08T19:27:36.445Z,7.10
2017-08-08T19:30:03.961Z,4.10
2017-08-08T19:32:31.452Z,5.60
2017-08-08T19:34:58.969Z,6.45
2017-08-08T19:37:26.469Z,5.68
2017-08-08T19:39:53.961Z,8.32
2017-08-08T19:42:21.454Z,7.37
2017-08-08T19:44:48.947Z,5.95
2017-08-08T19:47:16.460Z,7.32
2017-08-08T19:49:43.954Z,9.13
2017-08-08T19:52:11.449Z,2.75
2017-08-08T19:54:39.240Z,3.72
2017-08-08T19:57:06.872Z,4.78
2017-08-08T19:59:34.440Z,7.40
2017-08-08T20:02:01.757Z,5.25
2017-08-08T20:04:30.169Z,5.50
2017-08-08T20:06:57.725Z,5.72
2017-08-08T20:09:24.963Z,3.27
2017-08-08T20:11:52.160Z,2.80
2017-08-08T20:14:19.365Z,8.93
2017-08-08T20:16:46.876Z,2.78
2017-08-08T20:19:15.010Z,6.10
2017-08-08T20:21:42.246Z,3.90
2017-08-08T20:24:09.480Z,4.77
2017-08-08T20:26:36.744Z,1.80
2017-08-08T20:29:04.248Z,3.17
2017-08-08T20:31:31.481Z,6.10
2017-08-08T20:33:59.036Z,4.15
2017-08-08T20:36:26.543Z,1.55
2017-08-08T20:38:54.077Z,8.13
2017-08-08T20:41:21.572Z,5.28
2017-08-08T20:43:49.081Z,4.10
2017-08-08T20:46:16.423Z,2.80
2017-08-08T20:48:43.625Z,2.20
2017-08-08T20:51:11.114Z,2.42
2017-08-08T20:53:38.635Z,3.78
2017-08-08T20:56:05.865Z,3.13
2017-08-08T20:58:33.357Z,1.80
2017-08-08T21:01:01.509Z,4.80
2017-08-08T21:03:28.742Z,2.20
2017-08-08T21:05:55.948Z,4.10
2017-08-08T21:08:23.168Z,2.73
2017-08-08T21:10:50.660Z,4.30
2017-08-08T21:13:17.874Z,6.20
2017-08-08T21:15:45.090Z,2.23
2017-08-08T21:18:12.296Z,2.27
2017-08-08T21:20:39.517Z,7.30
2017-08-08T21:23:06.777Z,3.43
2017-08-08T21:25:33.996Z,3.70
2017-08-08T21:28:01.209Z,4.37
2017-08-08T21:30:28.420Z,1.90
2017-08-08T21:32:55.934Z,3.25
2017-08-08T21:35:23.142Z,3.63
2017-08-08T21:37:50.636Z,2.22
2017-08-08T21:40:17.841Z,3.70
2017-08-08T21:42:45.045Z,6.13
2017-08-08T21:45:12.269Z,5.13
2017-08-08T21:47:39.762Z,1.55
2017-08-08T21:50:06.960Z,1.60
2017-08-08T21:52:34.192Z,1.70
2017-08-08T21:55:01.680Z,2.37
2017-08-08T21:57:28.901Z,7.53
2017-08-08T21:59:56.400Z,1.85
2017-08-08T22:02:23.926Z,1.87
2017-08-08T22:04:51.417Z,2.80
2017-08-08T22:07:18.624Z,2.80
2017-08-08T22:09:45.849Z,9.33
2017-08-08T22:12:13.106Z,1.50
2017-08-08T22:14:40.305Z,3.20
2017-08-08T22:17:07.524Z,1.50
2017-08-08T22:19:34.728Z,2.63
2017-08-08T22:22:01.953Z,2.83
2017-08-08T22:24:30.105Z,4.30
2017-08-08T22:26:57.319Z,1.30
2017-08-08T22:29:24.532Z,1.50
2017-08-08T22:31:51.728Z,1.10
2017-08-08T22:34:19.348Z,1.43
2017-08-08T22:36:46.556Z,1.37
2017-08-08T22:39:14.049Z,17.00
2017-08-08T22:41:41.305Z,1.50
2017-08-08T22:44:08.513Z,1.00
2017-08-08T22:46:35.748Z,3.60
2017-08-08T22:49:02.954Z,1.83
2017-08-08T22:51:30.169Z,2.80
2017-08-08T22:53:59.360Z,1.60
2017-08-08T22:56:26.844Z,1.35
2017-08-08T22:58:54.064Z,3.60
2017-08-08T23:01:21.656Z,9.60
2017-08-08T23:03:49.136Z,2.30
2017-08-08T23:06:16.332Z,3.30
2017-08-08T23:08:44.508Z,1.50
2017-08-08T23:11:11.729Z,2.17
2017-08-08T23:13:38.928Z,1.60
2017-08-08T23:16:06.123Z,1.90
2017-08-08T23:18:33.325Z,4.53
2017-08-08T23:21:00.530Z,1.57
2017-08-08T23:23:27.748Z,3.90
2017-08-08T23:25:55.905Z,3.40
2017-08-08T23:28:23.110Z,2.60
2017-08-08T23:30:50.330Z,1.90
2017-08-08T23:33:17.528Z,2.10
2017-08-08T23:35:44.761Z,3.40
2017-08-08T23:38:11.965Z,1.87
2017-08-08T23:40:39.165Z,1.70
2017-08-08T23:43:06.364Z,3.93
2017-08-08T23:45:33.563Z,2.27
2017-08-08T23:48:02.740Z,1.90
2017-08-08T23:50:29.955Z,2.70
2017-08-08T23:52:57.158Z,2.70
2017-08-08T23:55:24.361Z,6.93
2017-08-08T23:57:51.565Z,7.70
